createdAt,value
2018-02-24T00:00:06.797Z,73.50
2018-02-24T00:02:34.243Z,73.50
2018-02-24T00:05:01.726Z,73.40
2018-02-24T00:07:29.183Z,73.50
2018-02-24T00:09:57.481Z,73.60
2018-02-24T00:12:25.363Z,73.60
2018-02-24T00:14:53.613Z,73.60
2018-02-24T00:17:21.086Z,73.40
2018-02-24T00:19:48.554Z,73.40
2018-02-24T00:22:16.005Z,73.50
2018-02-24T00:24:43.457Z,73.30
2018-02-24T00:27:10.903Z,73.30
2018-02-24T00:29:38.351Z,73.20
2018-02-24T00:32:05.809Z,73.20
2018-02-24T00:34:33.252Z,73.10
2018-02-24T00:37:00.743Z,73.10
2018-02-24T00:39:28.200Z,73.20
2018-02-24T00:41:55.667Z,73.10
2018-02-24T00:44:23.151Z,73.20
2018-02-24T00:46:50.995Z,73.20
2018-02-24T00:49:18.425Z,73.20
2018-02-24T00:51:45.883Z,73.20
2018-02-24T00:54:13.380Z,73.20
2018-02-24T00:56:41.242Z,73.40
2018-02-24T00:59:09.083Z,73.70
2018-02-24T01:01:36.536Z,73.70
2018-02-24T01:04:04.002Z,73.70
2018-02-24T01:06:31.447Z,73.80
2018-02-24T01:08:58.909Z,73.60
2018-02-24T01:11:26.351Z,73.70
2018-02-24T01:13:53.823Z,73.50
2018-02-24T01:16:21.284Z,73.50
2018-02-24T01:18:48.754Z,73.70
2018-02-24T01:21:16.189Z,73.70
2018-02-24T01:23:43.664Z,73.90
2018-02-24T01:26:11.104Z,74.20
2018-02-24T01:28:38.564Z,74.50
2018-02-24T01:31:06.057Z,75.00
2018-02-24T01:33:33.907Z,75.50
2018-02-24T01:36:01.353Z,75.50
2018-02-24T01:38:28.786Z,75.70
2018-02-24T01:40:56.213Z,75.70
2018-02-24T01:43:23.644Z,75.70
2018-02-24T01:45:51.074Z,75.70
2018-02-24T01:48:18.508Z,75.70
2018-02-24T01:50:45.940Z,75.80
2018-02-24T01:53:13.382Z,75.80
2018-02-24T01:55:40.797Z,75.70
2018-02-24T01:58:08.236Z,75.70
2018-02-24T02:00:35.704Z,75.70
2018-02-24T02:03:03.132Z,75.70
2018-02-24T02:05:30.561Z,75.80
2018-02-24T02:07:58.003Z,75.60
2018-02-24T02:10:25.820Z,75.70
2018-02-24T02:12:53.265Z,75.70
2018-02-24T02:15:20.688Z,76.00
2018-02-24T02:17:48.451Z,76.10
2018-02-24T02:20:15.876Z,76.30
2018-02-24T02:22:43.305Z,76.30
2018-02-24T02:25:10.737Z,76.40
2018-02-24T02:27:38.177Z,76.30
2018-02-24T02:30:05.613Z,76.40
2018-02-24T02:32:33.439Z,76.30
2018-02-24T02:35:00.856Z,76.30
2018-02-24T02:37:28.284Z,76.30
2018-02-24T02:39:55.717Z,76.30
2018-02-24T02:42:23.149Z,76.20
2018-02-24T02:44:51.334Z,76.00
2018-02-24T02:47:18.769Z,75.70
2018-02-24T02:49:46.185Z,75.70
2018-02-24T02:52:14.033Z,75.50
2018-02-24T02:54:41.463Z,75.50
2018-02-24T02:57:08.895Z,75.60
2018-02-24T02:59:36.364Z,75.30
2018-02-24T03:02:03.776Z,75.50
2018-02-24T03:04:31.610Z,75.40
2018-02-24T03:06:59.038Z,75.40
2018-02-24T03:09:26.478Z,75.10
2018-02-24T03:11:53.913Z,75.30
2018-02-24T03:14:21.357Z,75.30
2018-02-24T03:16:48.781Z,75.40
2018-02-24T03:19:16.221Z,75.20
2018-02-24T03:21:43.648Z,75.30
2018-02-24T03:24:11.472Z,75.30
2018-02-24T03:26:38.898Z,75.30
2018-02-24T03:29:06.324Z,75.30
2018-02-24T03:31:33.753Z,75.40
2018-02-24T03:34:01.189Z,75.50
2018-02-24T03:36:28.629Z,75.60
2018-02-24T03:38:56.056Z,75.60
2018-02-24T03:41:23.480Z,75.70
2018-02-24T03:43:51.752Z,75.70
2018-02-24T03:46:34.844Z,75.70
2018-02-24T03:49:02.270Z,75.90
2018-02-24T03:51:29.704Z,76.10
2018-02-24T03:53:57.178Z,76.30
2018-02-24T03:56:25.021Z,76.40
2018-02-24T03:58:52.459Z,76.40
2018-02-24T04:01:19.876Z,76.40
2018-02-24T04:03:47.310Z,76.40
2018-02-24T04:06:14.731Z,76.10
2018-02-24T04:08:42.170Z,76.10
2018-02-24T04:11:09.588Z,76.30
2018-02-24T04:13:37.025Z,76.20
2018-02-24T04:16:04.860Z,76.20
2018-02-24T04:18:32.296Z,76.20
2018-02-24T04:20:59.729Z,76.30
2018-02-24T04:23:27.160Z,76.20
2018-02-24T04:25:54.604Z,76.00
2018-02-24T04:28:22.028Z,76.10
2018-02-24T04:30:49.452Z,76.10
2018-02-24T04:33:16.888Z,76.20
2018-02-24T04:35:44.321Z,76.40
2018-02-24T04:38:11.756Z,76.20
2018-02-24T04:40:39.185Z,76.10
2018-02-24T04:43:06.612Z,76.20
2018-02-24T04:45:34.043Z,76.20
2018-02-24T04:48:01.480Z,76.30
2018-02-24T04:50:28.903Z,76.10
2018-02-24T04:52:57.279Z,76.10
2018-02-24T04:55:24.724Z,76.10
2018-02-24T04:57:52.144Z,76.30
2018-02-24T05:00:19.568Z,76.20
2018-02-24T05:02:46.992Z,76.30
2018-02-24T05:05:14.428Z,76.30
2018-02-24T05:07:42.248Z,76.30
2018-02-24T05:10:09.680Z,76.30
2018-02-24T05:12:37.113Z,76.40
2018-02-24T05:15:04.944Z,76.50
2018-02-24T05:17:32.369Z,76.50
2018-02-24T05:19:59.823Z,76.60
2018-02-24T05:22:27.248Z,76.70
2018-02-24T05:24:55.110Z,76.50
2018-02-24T05:27:22.505Z,76.50
2018-02-24T05:29:49.943Z,76.60
2018-02-24T05:32:17.377Z,76.50
2018-02-24T05:34:44.804Z,76.60
2018-02-24T05:37:12.224Z,76.70
2018-02-24T05:39:39.661Z,76.70
2018-02-24T05:42:07.092Z,76.60
2018-02-24T05:44:34.534Z,76.80
2018-02-24T05:47:01.960Z,76.70
2018-02-24T05:49:29.388Z,76.70
2018-02-24T05:51:56.814Z,76.80
2018-02-24T05:54:24.255Z,76.50
2018-02-24T05:56:51.709Z,76.80
2018-02-24T05:59:19.120Z,76.70
2018-02-24T06:01:46.552Z,76.80
2018-02-24T06:04:14.384Z,76.70
2018-02-24T06:06:41.812Z,76.70
2018-02-24T06:09:09.264Z,77.00
2018-02-24T06:11:36.677Z,76.80
2018-02-24T06:14:04.104Z,76.60
2018-02-24T06:16:31.538Z,76.60
2018-02-24T06:18:58.970Z,76.60
2018-02-24T06:21:26.413Z,76.70
2018-02-24T06:23:54.241Z,76.60
2018-02-24T06:26:21.714Z,76.60
2018-02-24T06:28:49.150Z,76.40
2018-02-24T06:31:16.588Z,76.50
2018-02-24T06:33:44.001Z,76.50
2018-02-24T06:36:11.836Z,76.40
2018-02-24T06:38:39.271Z,76.40
2018-02-24T06:41:06.683Z,76.30
2018-02-24T06:43:34.538Z,76.50
2018-02-24T06:46:01.951Z,76.50
2018-02-24T06:48:29.368Z,76.50
2018-02-24T06:50:56.807Z,76.50
2018-02-24T06:53:24.232Z,76.40
2018-02-24T06:55:51.664Z,76.50
2018-02-24T06:58:19.088Z,76.50
2018-02-24T07:00:46.939Z,76.50
2018-02-24T07:03:14.353Z,76.50
2018-02-24T07:05:41.776Z,76.50
2018-02-24T07:08:09.206Z,76.30
2018-02-24T07:10:36.642Z,76.30
2018-02-24T07:13:04.068Z,76.30
2018-02-24T07:15:31.506Z,76.10
2018-02-24T07:17:58.935Z,76.00
2018-02-24T07:20:26.377Z,76.00
2018-02-24T07:22:53.799Z,75.90
2018-02-24T07:25:21.760Z,75.70
2018-02-24T07:27:49.203Z,75.60
2018-02-24T07:30:16.697Z,75.50
2018-02-24T07:32:44.120Z,75.40
2018-02-24T07:35:11.556Z,75.00
2018-02-24T07:37:39.385Z,74.80
2018-02-24T07:40:06.921Z,74.80
2018-02-24T07:42:34.693Z,74.20
2018-02-24T07:45:02.166Z,74.20
2018-02-24T07:47:29.591Z,74.10
2018-02-24T07:49:57.056Z,73.50
2018-02-24T07:52:24.540Z,73.40
2018-02-24T07:54:52.063Z,73.10
2018-02-24T07:57:19.497Z,73.00
2018-02-24T07:59:46.945Z,73.00
2018-02-24T08:02:14.890Z,72.40
2018-02-24T08:04:42.343Z,72.40
2018-02-24T08:07:09.801Z,72.00
2018-02-24T08:09:37.260Z,71.70
2018-02-24T08:12:04.689Z,71.30
2018-02-24T08:14:32.164Z,71.00
2018-02-24T08:16:59.633Z,71.00
2018-02-24T08:19:27.143Z,70.70
2018-02-24T08:21:54.583Z,70.30
2018-02-24T08:24:22.018Z,70.30
2018-02-24T08:26:49.452Z,70.10
2018-02-24T08:29:16.958Z,70.00
2018-02-24T08:31:44.396Z,69.80
2018-02-24T08:34:12.221Z,69.10
2018-02-24T08:36:39.656Z,69.10
2018-02-24T08:39:07.092Z,69.10
2018-02-24T08:41:34.557Z,69.00
2018-02-24T08:44:01.969Z,69.20
2018-02-24T08:46:29.792Z,68.70
2018-02-24T08:48:57.446Z,68.70
2018-02-24T08:51:24.876Z,69.00
2018-02-24T08:53:52.351Z,68.90
2018-02-24T08:56:19.801Z,68.50
2018-02-24T08:58:47.258Z,68.20
2018-02-24T09:01:14.681Z,67.90
2018-02-24T09:03:42.104Z,68.00
2018-02-24T09:06:09.586Z,67.60
2018-02-24T09:08:37.000Z,67.30
2018-02-24T09:11:04.437Z,67.20
2018-02-24T09:13:31.948Z,67.00
2018-02-24T09:15:59.372Z,66.90
2018-02-24T09:18:26.796Z,66.50
2018-02-24T09:20:54.229Z,66.30
2018-02-24T09:23:22.048Z,66.50
2018-02-24T09:25:49.486Z,66.50
2018-02-24T09:28:16.907Z,66.20
2018-02-24T09:30:44.339Z,66.00
2018-02-24T09:33:11.818Z,65.80
2018-02-24T09:35:39.229Z,65.90
2018-02-24T09:38:06.659Z,65.30
2018-02-24T09:40:34.109Z,65.20
2018-02-24T09:43:01.542Z,65.10
2018-02-24T09:45:29.364Z,63.90
2018-02-24T09:47:56.796Z,63.90
2018-02-24T09:50:24.240Z,63.40
2018-02-24T09:52:51.678Z,62.50
2018-02-24T09:55:19.131Z,62.50
2018-02-24T09:57:46.553Z,62.60
2018-02-24T10:00:13.989Z,62.30
2018-02-24T10:02:41.408Z,61.90
2018-02-24T10:05:09.235Z,61.60
2018-02-24T10:07:36.648Z,61.60
2018-02-24T10:10:04.084Z,61.60
2018-02-24T10:12:31.512Z,61.60
2018-02-24T10:14:59.021Z,61.60
2018-02-24T10:17:26.385Z,61.50
2018-02-24T10:19:53.827Z,61.70
2018-02-24T10:22:21.245Z,61.50
2018-02-24T10:24:48.736Z,61.50
2018-02-24T10:27:16.120Z,61.50
2018-02-24T10:29:43.572Z,61.50
2018-02-24T10:32:11.009Z,61.10
2018-02-24T10:34:38.429Z,61.20
2018-02-24T10:37:05.865Z,61.50
2018-02-24T10:39:33.502Z,61.40
2018-02-24T10:42:01.002Z,61.50
2018-02-24T10:44:28.380Z,61.50
2018-02-24T10:46:56.812Z,61.40
2018-02-24T10:49:24.388Z,61.50
2018-02-24T10:51:51.849Z,60.70
2018-02-24T10:54:19.288Z,60.00
2018-02-24T10:56:46.726Z,60.50
2018-02-24T10:59:14.187Z,60.20
2018-02-24T11:01:41.636Z,60.10
2018-02-24T11:04:09.104Z,60.20
2018-02-24T11:06:36.532Z,60.00
2018-02-24T11:09:03.956Z,59.90
2018-02-24T11:11:31.433Z,60.00
2018-02-24T11:13:59.256Z,59.90
2018-02-24T11:16:26.693Z,60.00
2018-02-24T11:18:54.120Z,60.00
2018-02-24T11:21:21.598Z,59.90
2018-02-24T11:23:49.029Z,60.10
2018-02-24T11:26:16.500Z,60.10
2018-02-24T11:28:43.932Z,60.10
2018-02-24T11:31:11.753Z,60.20
2018-02-24T11:33:39.229Z,60.20
2018-02-24T11:36:06.721Z,60.50
2018-02-24T11:38:34.165Z,60.50
2018-02-24T11:41:01.616Z,60.60
2018-02-24T11:43:29.456Z,61.00
2018-02-24T11:45:56.879Z,61.00
2018-02-24T11:48:24.304Z,60.90
2018-02-24T11:50:52.254Z,60.60
2018-02-24T11:53:19.717Z,60.60
2018-02-24T11:55:47.544Z,60.40
2018-02-24T11:58:15.697Z,60.40
2018-02-24T12:00:43.150Z,60.30
2018-02-24T12:03:10.573Z,60.60
2018-02-24T12:05:42.967Z,60.30
2018-02-24T12:08:10.380Z,60.10
2018-02-24T12:10:37.806Z,60.60
2018-02-24T12:13:05.220Z,60.10
2018-02-24T12:15:33.052Z,60.10
2018-02-24T12:18:00.486Z,60.10
2018-02-24T12:20:27.911Z,60.10
2018-02-24T12:22:55.333Z,60.00
2018-02-24T12:25:22.775Z,60.10
2018-02-24T12:27:50.253Z,60.10
2018-02-24T12:30:17.689Z,60.10
2018-02-24T12:32:45.109Z,60.20
2018-02-24T12:35:12.536Z,60.00
2018-02-24T12:37:40.361Z,60.40
2018-02-24T12:40:07.792Z,60.50
2018-02-24T12:42:35.224Z,60.60
2018-02-24T12:45:02.645Z,60.80
2018-02-24T12:47:30.085Z,60.70
2018-02-24T12:49:57.511Z,60.80
2018-02-24T12:52:25.436Z,61.10
2018-02-24T12:54:52.845Z,61.10
2018-02-24T12:57:20.286Z,61.20
2018-02-24T12:59:47.711Z,61.60
2018-02-24T13:02:15.533Z,61.80
2018-02-24T13:04:42.952Z,61.80
2018-02-24T13:07:10.373Z,61.80
2018-02-24T13:09:37.789Z,62.00
2018-02-24T13:12:05.218Z,62.60
2018-02-24T13:14:32.645Z,63.10
2018-02-24T13:17:00.069Z,63.40
2018-02-24T13:19:27.489Z,63.50
2018-02-24T13:21:55.026Z,63.60
2018-02-24T13:24:22.476Z,63.90
2018-02-24T13:26:49.897Z,63.90
2018-02-24T13:29:17.309Z,63.90
2018-02-24T13:31:44.740Z,64.10
2018-02-24T13:34:12.180Z,64.50
2018-02-24T13:36:39.651Z,64.90
2018-02-24T13:39:07.151Z,65.10
2018-02-24T13:41:34.637Z,65.30
2018-02-24T13:44:02.172Z,65.40
2018-02-24T13:46:29.638Z,65.30
2018-02-24T13:48:57.916Z,65.50
2018-02-24T13:51:25.501Z,65.50
2018-02-24T13:53:52.945Z,65.30
2018-02-24T13:56:20.388Z,65.50
2018-02-24T13:58:48.667Z,65.30
2018-02-24T14:01:16.112Z,65.20
2018-02-24T14:03:44.433Z,65.20
2018-02-24T14:06:12.802Z,65.10
2018-02-24T14:08:40.228Z,65.20
2018-02-24T14:11:07.891Z,65.60
2018-02-24T14:13:35.373Z,66.20
2018-02-24T14:16:02.823Z,66.20
2018-02-24T14:18:30.558Z,66.20
2018-02-24T14:20:58.942Z,66.50
2018-02-24T14:23:27.789Z,66.40
2018-02-24T14:25:55.273Z,66.20
2018-02-24T14:28:22.676Z,66.20
2018-02-24T14:30:50.164Z,66.10
2018-02-24T14:33:17.608Z,65.90
2018-02-24T14:35:45.085Z,65.30
2018-02-24T14:38:13.726Z,65.00
2018-02-24T14:40:44.098Z,64.80
2018-02-24T14:43:11.929Z,64.90
2018-02-24T14:45:39.785Z,65.00
2018-02-24T14:48:07.234Z,65.10
2018-02-24T14:50:34.669Z,65.60
2018-02-24T14:53:02.128Z,65.60
2018-02-24T14:55:29.588Z,65.90
2018-02-24T14:57:58.200Z,66.10
2018-02-24T15:00:27.772Z,65.70
2018-02-24T15:02:55.235Z,65.70
2018-02-24T15:05:24.602Z,65.40
2018-02-24T15:07:53.122Z,65.70
2018-02-24T15:10:21.457Z,65.70
2018-02-24T15:12:48.918Z,65.70
2018-02-24T15:15:17.665Z,65.50
2018-02-24T15:17:46.040Z,65.50
2018-02-24T15:20:16.209Z,65.80
2018-02-24T15:22:43.697Z,66.20
2018-02-24T15:25:11.140Z,66.70
2018-02-24T15:27:38.910Z,66.70
2018-02-24T15:30:06.360Z,66.70
2018-02-24T15:32:33.811Z,66.70
2018-02-24T15:35:01.267Z,66.30
2018-02-24T15:37:31.165Z,66.60
2018-02-24T15:39:59.816Z,66.40
2018-02-24T15:42:27.286Z,66.40
2018-02-24T15:44:54.774Z,66.30
2018-02-24T15:47:22.260Z,66.50
2018-02-24T15:49:50.123Z,66.50
2018-02-24T15:52:17.664Z,66.60
2018-02-24T15:54:45.156Z,66.60
2018-02-24T15:57:12.964Z,66.00
2018-02-24T15:59:40.400Z,65.90
2018-02-24T16:02:08.676Z,66.20
2018-02-24T16:04:36.111Z,66.20
2018-02-24T16:07:03.602Z,66.20
2018-02-24T16:09:31.053Z,66.10
2018-02-24T16:11:58.547Z,66.40
2018-02-24T16:14:26.551Z,66.30
2018-02-24T16:16:55.595Z,66.10
2018-02-24T16:19:23.496Z,66.20
2018-02-24T16:21:50.929Z,66.20
2018-02-24T16:24:18.340Z,66.40
2018-02-24T16:26:45.773Z,66.60
2018-02-24T16:29:13.202Z,66.60
2018-02-24T16:31:40.648Z,66.60
2018-02-24T16:34:08.061Z,66.40
2018-02-24T16:36:35.506Z,66.20
2018-02-24T16:39:02.930Z,66.20
2018-02-24T16:41:30.370Z,66.40
2018-02-24T16:43:57.788Z,66.30
2018-02-24T16:46:25.230Z,66.30
2018-02-24T16:48:52.747Z,66.30
2018-02-24T16:51:20.561Z,66.30
2018-02-24T16:53:47.998Z,66.30
2018-02-24T16:56:15.437Z,66.70
2018-02-24T16:58:42.920Z,66.50
2018-02-24T17:01:10.357Z,66.50
2018-02-24T17:03:37.840Z,66.60
2018-02-24T17:06:05.283Z,66.20
2018-02-24T17:08:32.713Z,66.10
2018-02-24T17:11:00.144Z,66.20
2018-02-24T17:13:27.569Z,66.00
2018-02-24T17:15:55.004Z,66.10
2018-02-24T17:18:22.456Z,65.90
2018-02-24T17:20:49.857Z,65.80
2018-02-24T17:23:17.289Z,65.40
2018-02-24T17:25:44.712Z,65.40
2018-02-24T17:28:12.152Z,65.50
2018-02-24T17:30:39.593Z,65.60
2018-02-24T17:33:06.989Z,66.00
2018-02-24T17:35:34.409Z,66.20
2018-02-24T17:38:02.228Z,66.40
2018-02-24T17:40:29.691Z,66.40
2018-02-24T17:42:57.077Z,66.50
2018-02-24T17:45:24.498Z,66.70
2018-02-24T17:47:51.926Z,66.80
2018-02-24T17:50:19.344Z,67.10
2018-02-24T17:52:47.173Z,67.00
2018-02-24T17:55:14.606Z,67.00
2018-02-24T17:57:42.042Z,67.00
2018-02-24T18:00:09.465Z,67.00
2018-02-24T18:02:36.922Z,67.00
2018-02-24T18:05:04.349Z,66.80
2018-02-24T18:07:31.782Z,66.70
2018-02-24T18:09:59.200Z,66.70
2018-02-24T18:12:27.025Z,66.50
2018-02-24T18:14:54.460Z,66.50
2018-02-24T18:17:21.882Z,66.40
2018-02-24T18:19:49.309Z,66.30
2018-02-24T18:22:16.760Z,66.30
2018-02-24T18:24:44.209Z,66.20
2018-02-24T18:27:11.637Z,66.30
2018-02-24T18:29:39.054Z,66.10
2018-02-24T18:32:06.497Z,65.90
2018-02-24T18:34:34.493Z,65.90
2018-02-24T18:37:01.921Z,65.80
2018-02-24T18:39:29.361Z,65.80
2018-02-24T18:41:56.793Z,65.80
2018-02-24T18:44:24.225Z,65.40
2018-02-24T18:46:52.066Z,65.40
2018-02-24T18:49:19.500Z,65.40
2018-02-24T18:51:46.953Z,65.30
2018-02-24T18:54:14.376Z,65.40
2018-02-24T18:56:41.819Z,65.00
2018-02-24T18:59:09.644Z,64.80
2018-02-24T19:01:37.075Z,64.80
2018-02-24T19:04:04.516Z,64.90
2018-02-24T19:06:31.945Z,64.80
2018-02-24T19:08:59.785Z,64.90
2018-02-24T19:11:27.212Z,64.90
2018-02-24T19:13:54.646Z,64.90
2018-02-24T19:16:22.069Z,65.10
2018-02-24T19:18:49.506Z,65.00
2018-02-24T19:21:16.999Z,64.90
2018-02-24T19:23:44.449Z,64.90
2018-02-24T19:26:11.893Z,65.00
2018-02-24T19:28:39.337Z,65.00
2018-02-24T19:31:06.793Z,65.00
2018-02-24T19:33:34.234Z,65.00
2018-02-24T19:36:01.672Z,65.00
2018-02-24T19:38:29.128Z,65.10
2018-02-24T19:40:57.470Z,65.30
2018-02-24T19:43:24.926Z,65.30
2018-02-24T19:45:52.370Z,65.60
2018-02-24T19:48:19.811Z,65.50
2018-02-24T19:50:47.261Z,65.60
2018-02-24T19:53:14.722Z,65.50
2018-02-24T19:55:42.145Z,65.50
2018-02-24T19:58:09.682Z,65.60
2018-02-24T20:00:37.045Z,65.70
2018-02-24T20:03:04.489Z,65.70
2018-02-24T20:05:31.916Z,65.60
2018-02-24T20:07:59.753Z,65.80
2018-02-24T20:10:27.570Z,65.50
2018-02-24T20:12:55.005Z,65.50
2018-02-24T20:15:22.444Z,65.30
2018-02-24T20:17:49.877Z,65.50
2018-02-24T20:20:17.305Z,65.70
2018-02-24T20:22:44.749Z,65.80
2018-02-24T20:25:12.203Z,65.80
2018-02-24T20:27:40.024Z,65.70
2018-02-24T20:30:07.490Z,65.80
2018-02-24T20:32:34.918Z,65.90
2018-02-24T20:35:02.342Z,66.00
2018-02-24T20:37:29.773Z,65.80
2018-02-24T20:39:57.205Z,65.80
2018-02-24T20:42:24.661Z,65.90
2018-02-24T20:44:52.095Z,65.80
2018-02-24T20:47:19.529Z,65.80
2018-02-24T20:49:46.957Z,65.80
2018-02-24T20:52:14.797Z,65.50
2018-02-24T20:54:42.247Z,65.50
2018-02-24T20:57:09.688Z,65.70
2018-02-24T20:59:37.144Z,65.80
2018-02-24T21:02:04.582Z,65.60
2018-02-24T21:04:32.013Z,65.80
2018-02-24T21:06:59.449Z,65.90
2018-02-24T21:09:26.894Z,65.60
2018-02-24T21:11:54.322Z,65.50
2018-02-24T21:14:21.779Z,65.40
2018-02-24T21:16:49.249Z,65.40
2018-02-24T21:19:16.734Z,65.50
2018-02-24T21:21:44.186Z,65.30
2018-02-24T21:24:11.674Z,65.50
2018-02-24T21:26:39.691Z,65.40
2018-02-24T21:29:07.755Z,65.20
2018-02-24T21:31:35.184Z,65.10
2018-02-24T21:34:02.669Z,65.10
2018-02-24T21:36:30.167Z,65.20
2018-02-24T21:38:57.853Z,65.30
2018-02-24T21:41:25.987Z,65.50
2018-02-24T21:43:53.445Z,65.70
2018-02-24T21:46:20.907Z,65.70
2018-02-24T21:48:48.366Z,65.90
2018-02-24T21:51:15.808Z,65.80
2018-02-24T21:53:43.317Z,65.90
2018-02-24T21:56:10.787Z,65.90
2018-02-24T21:58:38.268Z,65.90
2018-02-24T22:04:07.705Z,66.10
2018-02-24T22:06:35.185Z,65.90
2018-02-24T22:09:03.112Z,65.70
2018-02-24T22:11:31.317Z,65.70
2018-02-24T22:13:59.573Z,65.80
2018-02-24T22:16:28.369Z,65.90
2018-02-24T22:18:55.890Z,65.70
2018-02-24T22:21:23.829Z,66.00
2018-02-24T22:23:52.556Z,66.00
2018-02-24T22:26:23.028Z,66.00
2018-02-24T22:28:58.892Z,66.20
2018-02-24T22:31:28.600Z,66.10
2018-02-24T22:33:57.097Z,66.00
2018-02-24T22:36:24.949Z,66.20
2018-02-24T22:38:55.740Z,66.00
2018-02-24T22:41:30.234Z,66.00
2018-02-24T22:43:58.070Z,66.20
2018-02-24T22:46:31.304Z,66.40
2018-02-24T22:49:01.012Z,66.40
2018-02-24T22:51:28.488Z,66.70
2018-02-24T22:53:56.568Z,66.50
2018-02-24T22:56:25.140Z,66.70
2018-02-24T22:58:52.628Z,66.70
2018-02-24T23:01:24.241Z,66.50
2018-02-24T23:03:54.530Z,66.50
2018-02-24T23:06:22.006Z,66.70
2018-02-24T23:08:50.842Z,66.70
2018-02-24T23:28:10.408Z,66.90
2018-02-24T23:30:41.052Z,66.70
2018-02-24T23:33:19.485Z,66.70
2018-02-24T23:35:46.916Z,66.70
2018-02-24T23:38:16.298Z,66.80
2018-02-24T23:40:43.749Z,67.10
2018-02-24T23:43:11.253Z,66.70
2018-02-24T23:45:38.709Z,67.00
2018-02-24T23:48:07.079Z,66.80
2018-02-24T23:50:35.187Z,67.00
2018-02-24T23:53:03.377Z,66.90
2018-02-24T23:55:31.066Z,67.00
2018-02-24T23:57:59.457Z,67.10
